sensor_id;sensor_type;location;lat;lon;timestamp;pressure;altitude;pressure_sealevel;temperature;humidity
70544;BME280;58097;48.364;-1.224;2023-04-27T00:01:29;99654.91;;;11.49;83.24
70544;BME280;58097;48.364;-1.224;2023-04-27T00:03:54;99652.84;;;11.43;83.99
70544;BME280;58097;48.364;-1.224;2023-04-27T00:06:21;99647.31;;;11.35;83.65
70544;BME280;58097;48.364;-1.224;2023-04-27T00:08:46;99655.59;;;11.27;83.63
70544;BME280;58097;48.364;-1.224;2023-04-27T00:11:11;99649.53;;;11.24;83.17
70544;BME280;58097;48.364;-1.224;2023-04-27T00:13:37;99645.38;;;11.20;83.22
70544;BME280;58097;48.364;-1.224;2023-04-27T00:16:02;99637.59;;;11.15;83.14
70544;BME280;58097;48.364;-1.224;2023-04-27T00:18:28;99643.50;;;11.12;82.74
70544;BME280;58097;48.364;-1.224;2023-04-27T00:20:55;99637.25;;;11.10;82.46
70544;BME280;58097;48.364;-1.224;2023-04-27T00:23:20;99634.31;;;11.03;82.19
70544;BME280;58097;48.364;-1.224;2023-04-27T00:25:46;99623.91;;;10.97;81.98
70544;BME280;58097;48.364;-1.224;2023-04-27T00:28:11;99633.44;;;10.95;81.98
70544;BME280;58097;48.364;-1.224;2023-04-27T00:30:36;99626.84;;;10.88;82.03
70544;BME280;58097;48.364;-1.224;2023-04-27T00:33:02;99629.09;;;10.84;82.38
70544;BME280;58097;48.364;-1.224;2023-04-27T00:35:27;99634.63;;;10.84;82.64
70544;BME280;58097;48.364;-1.224;2023-04-27T00:37:53;99622.88;;;10.82;82.61
70544;BME280;58097;48.364;-1.224;2023-04-27T00:40:19;99619.25;;;10.81;82.60
70544;BME280;58097;48.364;-1.224;2023-04-27T00:42:45;99619.25;;;10.81;82.71
70544;BME280;58097;48.364;-1.224;2023-04-27T00:45:10;99625.81;;;10.80;82.55
70544;BME280;58097;48.364;-1.224;2023-04-27T00:47:36;99628.91;;;10.77;82.18
70544;BME280;58097;48.364;-1.224;2023-04-27T00:50:02;99630.13;;;10.75;82.55
70544;BME280;58097;48.364;-1.224;2023-04-27T00:52:28;99630.63;;;10.70;82.38
70544;BME280;58097;48.364;-1.224;2023-04-27T00:54:56;99636.66;;;10.66;82.50
70544;BME280;58097;48.364;-1.224;2023-04-27T00:57:21;99636.47;;;10.67;83.21
70544;BME280;58097;48.364;-1.224;2023-04-27T00:59:47;99635.44;;;10.68;83.29
70544;BME280;58097;48.364;-1.224;2023-04-27T01:02:13;99633.22;;;10.72;83.31
70544;BME280;58097;48.364;-1.224;2023-04-27T01:04:39;99628.41;;;10.74;83.50
70544;BME280;58097;48.364;-1.224;2023-04-27T01:07:04;99626.50;;;10.74;83.46
70544;BME280;58097;48.364;-1.224;2023-04-27T01:09:30;99633.59;;;10.77;83.67
70544;BME280;58097;48.364;-1.224;2023-04-27T01:11:55;99629.63;;;10.79;83.48
70544;BME280;58097;48.364;-1.224;2023-04-27T01:14:22;99628.56;;;10.80;83.57
70544;BME280;58097;48.364;-1.224;2023-04-27T01:16:47;99630.31;;;10.81;83.66
70544;BME280;58097;48.364;-1.224;2023-04-27T01:19:14;99632.22;;;10.81;83.62
70544;BME280;58097;48.364;-1.224;2023-04-27T01:21:39;99639.13;;;10.85;84.08
70544;BME280;58097;48.364;-1.224;2023-04-27T01:24:05;99634.13;;;10.89;84.37
70544;BME280;58097;48.364;-1.224;2023-04-27T01:26:31;99640.69;;;10.96;84.36
70544;BME280;58097;48.364;-1.224;2023-04-27T01:28:57;99626.53;;;10.99;84.78
70544;BME280;58097;48.364;-1.224;2023-04-27T01:31:22;99627.94;;;11.03;85.09
70544;BME280;58097;48.364;-1.224;2023-04-27T01:33:48;99610.81;;;11.07;85.13
70544;BME280;58097;48.364;-1.224;2023-04-27T01:36:13;99610.47;;;11.10;85.37
70544;BME280;58097;48.364;-1.224;2023-04-27T01:38:39;99607.19;;;11.15;87.86
70544;BME280;58097;48.364;-1.224;2023-04-27T01:41:05;99598.19;;;11.13;88.48
70544;BME280;58097;48.364;-1.224;2023-04-27T01:43:33;99603.72;;;11.13;87.26
70544;BME280;58097;48.364;-1.224;2023-04-27T01:46:06;99600.97;;;11.13;86.64
70544;BME280;58097;48.364;-1.224;2023-04-27T01:48:32;99602.19;;;11.10;87.35
70544;BME280;58097;48.364;-1.224;2023-04-27T01:50:57;99605.47;;;11.14;86.92
70544;BME280;58097;48.364;-1.224;2023-04-27T01:53:23;99594.06;;;11.17;86.66
70544;BME280;58097;48.364;-1.224;2023-04-27T01:55:48;99597.31;;;11.21;86.58
70544;BME280;58097;48.364;-1.224;2023-04-27T01:58:13;99598.72;;;11.16;87.32
70544;BME280;58097;48.364;-1.224;2023-04-27T02:00:38;99591.09;;;11.18;87.48
70544;BME280;58097;48.364;-1.224;2023-04-27T02:03:04;99589.19;;;11.19;88.15
70544;BME280;58097;48.364;-1.224;2023-04-27T02:05:29;99590.06;;;11.20;87.40
70544;BME280;58097;48.364;-1.224;2023-04-27T02:07:55;99585.91;;;11.24;87.67
70544;BME280;58097;48.364;-1.224;2023-04-27T02:10:20;99583.50;;;11.21;87.14
70544;BME280;58097;48.364;-1.224;2023-04-27T02:12:47;99582.28;;;11.23;87.73
70544;BME280;58097;48.364;-1.224;2023-04-27T02:15:12;99585.91;;;11.24;87.50
70544;BME280;58097;48.364;-1.224;2023-04-27T02:17:38;99588.00;;;11.22;88.32
70544;BME280;58097;48.364;-1.224;2023-04-27T02:20:04;99591.63;;;11.22;87.47
70544;BME280;58097;48.364;-1.224;2023-04-27T02:22:35;99589.72;;;11.23;87.90
70544;BME280;58097;48.364;-1.224;2023-04-27T02:25:01;99592.16;;;11.17;88.45
70544;BME280;58097;48.364;-1.224;2023-04-27T02:27:26;99588.69;;;11.24;87.49
70544;BME280;58097;48.364;-1.224;2023-04-27T02:29:51;99591.28;;;11.25;87.77
70544;BME280;58097;48.364;-1.224;2023-04-27T02:32:17;99581.59;;;11.21;88.82
70544;BME280;58097;48.364;-1.224;2023-04-27T02:34:42;99578.13;;;11.19;89.46
70544;BME280;58097;48.364;-1.224;2023-04-27T02:37:07;99571.41;;;11.22;88.20
70544;BME280;58097;48.364;-1.224;2023-04-27T02:39:33;99575.72;;;11.24;89.53
70544;BME280;58097;48.364;-1.224;2023-04-27T02:41:58;99562.06;;;11.23;89.49
70544;BME280;58097;48.364;-1.224;2023-04-27T02:44:24;99572.94;;;11.24;88.79
70544;BME280;58097;48.364;-1.224;2023-04-27T02:46:49;99573.81;;;11.25;88.46
70544;BME280;58097;48.364;-1.224;2023-04-27T02:49:15;99565.19;;;11.28;88.26
70544;BME280;58097;48.364;-1.224;2023-04-27T02:51:40;99562.94;;;11.31;88.45
70544;BME280;58097;48.364;-1.224;2023-04-27T02:54:06;99561.53;;;11.27;88.77
70544;BME280;58097;48.364;-1.224;2023-04-27T02:56:31;99557.75;;;11.28;88.28
70544;BME280;58097;48.364;-1.224;2023-04-27T02:58:57;99558.44;;;11.30;88.27
70544;BME280;58097;48.364;-1.224;2023-04-27T03:01:22;99557.03;;;11.26;89.43
70544;BME280;58097;48.364;-1.224;2023-04-27T03:03:47;99557.56;;;11.22;90.26
70544;BME280;58097;48.364;-1.224;2023-04-27T03:06:13;99567.06;;;11.19;89.54
70544;BME280;58097;48.364;-1.224;2023-04-27T03:08:39;99574.34;;;11.20;88.68
70544;BME280;58097;48.364;-1.224;2023-04-27T03:11:04;99570.34;;;11.23;88.97
70544;BME280;58097;48.364;-1.224;2023-04-27T03:13:30;99568.81;;;11.20;88.99
70544;BME280;58097;48.364;-1.224;2023-04-27T03:16:00;99568.81;;;11.12;89.36
70544;BME280;58097;48.364;-1.224;2023-04-27T03:18:25;99575.22;;;11.12;88.46
70544;BME280;58097;48.364;-1.224;2023-04-27T03:20:50;99585.41;;;11.12;88.05
70544;BME280;58097;48.364;-1.224;2023-04-27T03:23:16;99585.06;;;11.07;88.83
70544;BME280;58097;48.364;-1.224;2023-04-27T03:25:41;99592.16;;;11.01;88.20
70544;BME280;58097;48.364;-1.224;2023-04-27T03:28:06;99589.41;;;11.01;88.11
70544;BME280;58097;48.364;-1.224;2023-04-27T03:30:32;99587.28;;;10.95;88.78
70544;BME280;58097;48.364;-1.224;2023-04-27T03:32:57;99585.56;;;10.94;87.90
70544;BME280;58097;48.364;-1.224;2023-04-27T03:35:23;99589.19;;;10.95;88.13
70544;BME280;58097;48.364;-1.224;2023-04-27T03:37:48;99588.66;;;10.91;88.21
70544;BME280;58097;48.364;-1.224;2023-04-27T03:40:13;99590.75;;;10.81;88.52
70544;BME280;58097;48.364;-1.224;2023-04-27T03:42:39;99583.66;;;10.78;87.64
70544;BME280;58097;48.364;-1.224;2023-04-27T03:45:05;99580.38;;;10.75;87.22
70544;BME280;58097;48.364;-1.224;2023-04-27T03:47:31;99576.75;;;10.74;87.36
70544;BME280;58097;48.364;-1.224;2023-04-27T03:49:56;99566.34;;;10.60;88.37
70544;BME280;58097;48.364;-1.224;2023-04-27T03:52:21;99564.97;;;10.56;88.02
70544;BME280;58097;48.364;-1.224;2023-04-27T03:54:47;99562.19;;;10.48;89.00
70544;BME280;58097;48.364;-1.224;2023-04-27T03:57:12;99558.91;;;10.44;88.05
70544;BME280;58097;48.364;-1.224;2023-04-27T03:59:37;99561.28;;;10.39;87.77
70544;BME280;58097;48.364;-1.224;2023-04-27T04:02:03;99554.03;;;10.38;87.76
70544;BME280;58097;48.364;-1.224;2023-04-27T04:04:29;99554.72;;;10.32;88.45
70544;BME280;58097;48.364;-1.224;2023-04-27T04:06:55;99554.16;;;10.20;89.03
70544;BME280;58097;48.364;-1.224;2023-04-27T04:09:20;99554.47;;;10.17;88.89
70544;BME280;58097;48.364;-1.224;2023-04-27T04:11:45;99547.16;;;10.08;89.48
70544;BME280;58097;48.364;-1.224;2023-04-27T04:14:11;99539.91;;;10.07;89.61
70544;BME280;58097;48.364;-1.224;2023-04-27T04:16:36;99542.31;;;9.94;90.94
70544;BME280;58097;48.364;-1.224;2023-04-27T04:19:01;99538.47;;;9.87;91.06
70544;BME280;58097;48.364;-1.224;2023-04-27T04:21:27;99530.91;;;9.89;90.03
70544;BME280;58097;48.364;-1.224;2023-04-27T04:23:52;99528.13;;;9.89;89.75
70544;BME280;58097;48.364;-1.224;2023-04-27T04:26:17;99528.31;;;9.87;90.44
70544;BME280;58097;48.364;-1.224;2023-04-27T04:28:43;99512.63;;;9.88;89.56
70544;BME280;58097;48.364;-1.224;2023-04-27T04:31:08;99514.50;;;9.87;90.29
70544;BME280;58097;48.364;-1.224;2023-04-27T04:33:34;99506.59;;;9.92;89.88
70544;BME280;58097;48.364;-1.224;2023-04-27T04:36:02;99498.66;;;9.98;89.66
70544;BME280;58097;48.364;-1.224;2023-04-27T04:38:28;99495.72;;;9.91;90.83
70544;BME280;58097;48.364;-1.224;2023-04-27T04:40:53;99497.78;;;9.89;90.87
70544;BME280;58097;48.364;-1.224;2023-04-27T04:43:18;99498.66;;;9.89;90.66
70544;BME280;58097;48.364;-1.224;2023-04-27T04:45:44;99502.09;;;9.91;91.18
70544;BME280;58097;48.364;-1.224;2023-04-27T04:48:10;99501.75;;;9.94;90.54
70544;BME280;58097;48.364;-1.224;2023-04-27T04:50:35;99506.09;;;9.97;90.68
70544;BME280;58097;48.364;-1.224;2023-04-27T04:53:01;99500.56;;;9.97;90.05
70544;BME280;58097;48.364;-1.224;2023-04-27T04:55:26;99489.34;;;9.99;90.29
70544;BME280;58097;48.364;-1.224;2023-04-27T04:57:52;99494.31;;;9.87;92.29
70544;BME280;58097;48.364;-1.224;2023-04-27T05:00:17;99496.22;;;9.86;91.47
70544;BME280;58097;48.364;-1.224;2023-04-27T05:02:43;99500.88;;;9.86;91.65
70544;BME280;58097;48.364;-1.224;2023-04-27T05:05:08;99504.66;;;9.85;91.42
70544;BME280;58097;48.364;-1.224;2023-04-27T05:07:34;99498.97;;;9.86;91.52
70544;BME280;58097;48.364;-1.224;2023-04-27T05:09:59;99494.69;;;9.92;90.76
70544;BME280;58097;48.364;-1.224;2023-04-27T05:12:25;99492.78;;;9.92;91.14
70544;BME280;58097;48.364;-1.224;2023-04-27T05:14:51;99487.06;;;9.86;92.59
70544;BME280;58097;48.364;-1.224;2023-04-27T05:17:16;99484.69;;;9.91;91.92
70544;BME280;58097;48.364;-1.224;2023-04-27T05:19:42;99494.50;;;9.93;92.18
70544;BME280;58097;48.364;-1.224;2023-04-27T05:22:08;99510.03;;;9.94;92.10
70544;BME280;58097;48.364;-1.224;2023-04-27T05:24:33;99504.69;;;9.93;92.42
70544;BME280;58097;48.364;-1.224;2023-04-27T05:26:58;99503.16;;;9.99;91.88
70544;BME280;58097;48.364;-1.224;2023-04-27T05:29:24;99501.28;;;10.07;92.44
70544;BME280;58097;48.364;-1.224;2023-04-27T05:31:49;99503.16;;;10.07;93.16
70544;BME280;58097;48.364;-1.224;2023-04-27T05:34:15;99499.19;;;10.01;93.33
70544;BME280;58097;48.364;-1.224;2023-04-27T05:36:40;99493.84;;;10.00;94.33
70544;BME280;58097;48.364;-1.224;2023-04-27T05:39:05;99507.81;;;10.06;94.01
70544;BME280;58097;48.364;-1.224;2023-04-27T05:41:31;99502.66;;;10.03;95.39
70544;BME280;58097;48.364;-1.224;2023-04-27T05:43:56;99506.44;;;10.02;93.91
70544;BME280;58097;48.364;-1.224;2023-04-27T05:46:22;99495.75;;;10.07;93.41
70544;BME280;58097;48.364;-1.224;2023-04-27T05:48:47;99499.03;;;10.11;93.52
70544;BME280;58097;48.364;-1.224;2023-04-27T05:51:13;99506.16;;;10.13;93.63
70544;BME280;58097;48.364;-1.224;2023-04-27T05:53:38;99511.78;;;10.04;94.70
70544;BME280;58097;48.364;-1.224;2023-04-27T05:56:04;99509.53;;;9.99;94.53
70544;BME280;58097;48.364;-1.224;2023-04-27T05:58:31;99505.41;;;10.03;94.40
70544;BME280;58097;48.364;-1.224;2023-04-27T06:00:57;99518.88;;;10.06;94.63
70544;BME280;58097;48.364;-1.224;2023-04-27T06:03:23;99524.44;;;10.14;93.99
70544;BME280;58097;48.364;-1.224;2023-04-27T06:05:59;99525.13;;;10.16;95.00
70544;BME280;58097;48.364;-1.224;2023-04-27T06:08:26;99526.56;;;10.20;93.96
70544;BME280;58097;48.364;-1.224;2023-04-27T06:10:51;99525.53;;;10.21;95.20
70544;BME280;58097;48.364;-1.224;2023-04-27T06:13:17;99525.19;;;10.33;95.22
70544;BME280;58097;48.364;-1.224;2023-04-27T06:15:43;99527.28;;;10.39;94.41
70544;BME280;58097;48.364;-1.224;2023-04-27T06:18:08;99535.59;;;10.47;94.28
70544;BME280;58097;48.364;-1.224;2023-04-27T06:20:33;99527.66;;;10.52;94.21
70544;BME280;58097;48.364;-1.224;2023-04-27T06:22:59;99527.66;;;10.60;93.82
70544;BME280;58097;48.364;-1.224;2023-04-27T06:25:25;99543.03;;;10.63;93.44
70544;BME280;58097;48.364;-1.224;2023-04-27T06:27:54;99533.53;;;10.65;93.00
70544;BME280;58097;48.364;-1.224;2023-04-27T06:30:20;99538.22;;;10.73;93.74
70544;BME280;58097;48.364;-1.224;2023-04-27T06:32:46;99531.31;;;10.77;93.47
70544;BME280;58097;48.364;-1.224;2023-04-27T06:35:12;99541.50;;;10.76;93.37
70544;BME280;58097;48.364;-1.224;2023-04-27T06:37:37;99549.81;;;10.76;94.13
70544;BME280;58097;48.364;-1.224;2023-04-27T06:40:03;99541.16;;;10.79;93.92
70544;BME280;58097;48.364;-1.224;2023-04-27T06:42:29;99538.91;;;10.75;94.79
70544;BME280;58097;48.364;-1.224;2023-04-27T06:44:54;99539.78;;;10.83;93.53
70544;BME280;58097;48.364;-1.224;2023-04-27T06:47:20;99553.59;;;10.83;94.33
70544;BME280;58097;48.364;-1.224;2023-04-27T06:49:46;99554.97;;;10.88;93.68
70544;BME280;58097;48.364;-1.224;2023-04-27T06:52:12;99555.31;;;10.84;94.15
70544;BME280;58097;48.364;-1.224;2023-04-27T06:54:37;99559.47;;;10.80;94.65
70544;BME280;58097;48.364;-1.224;2023-04-27T06:57:02;99555.84;;;10.80;94.37
70544;BME280;58097;48.364;-1.224;2023-04-27T06:59:28;99547.56;;;10.80;93.42
70544;BME280;58097;48.364;-1.224;2023-04-27T07:01:53;99554.81;;;10.81;94.44
70544;BME280;58097;48.364;-1.224;2023-04-27T07:04:18;99558.09;;;10.93;94.13
70544;BME280;58097;48.364;-1.224;2023-04-27T07:06:44;99561.53;;;10.95;94.15
70544;BME280;58097;48.364;-1.224;2023-04-27T07:09:09;99564.47;;;10.93;94.74
70544;BME280;58097;48.364;-1.224;2023-04-27T07:11:34;99555.84;;;10.88;94.18
70544;BME280;58097;48.364;-1.224;2023-04-27T07:14:00;99558.59;;;10.96;94.06
70544;BME280;58097;48.364;-1.224;2023-04-27T07:16:25;99556.38;;;11.00;94.29
70544;BME280;58097;48.364;-1.224;2023-04-27T07:18:51;99562.94;;;11.07;93.38
70544;BME280;58097;48.364;-1.224;2023-04-27T07:21:16;99549.66;;;11.02;94.68
70544;BME280;58097;48.364;-1.224;2023-04-27T07:23:41;99557.06;;;11.02;94.35
70544;BME280;58097;48.364;-1.224;2023-04-27T07:26:07;99556.38;;;11.00;94.25
70544;BME280;58097;48.364;-1.224;2023-04-27T07:28:33;99548.09;;;11.00;93.92
70544;BME280;58097;48.364;-1.224;2023-04-27T07:30:59;99540.81;;;11.07;94.44
70544;BME280;58097;48.364;-1.224;2023-04-27T07:33:25;99539.44;;;11.11;93.97
70544;BME280;58097;48.364;-1.224;2023-04-27T07:35:51;99542.19;;;11.19;93.91
70544;BME280;58097;48.364;-1.224;2023-04-27T07:38:18;99546.34;;;11.15;94.45
70544;BME280;58097;48.364;-1.224;2023-04-27T07:40:43;99534.94;;;11.18;94.42
70544;BME280;58097;48.364;-1.224;2023-04-27T07:43:09;99526.81;;;11.16;94.24
70544;BME280;58097;48.364;-1.224;2023-04-27T07:45:34;99525.25;;;11.22;94.87
70544;BME280;58097;48.364;-1.224;2023-04-27T07:48:03;99537.53;;;11.28;94.24
70544;BME280;58097;48.364;-1.224;2023-04-27T07:50:29;99526.28;;;11.37;93.74
70544;BME280;58097;48.364;-1.224;2023-04-27T07:52:55;99525.19;;;11.46;94.48
70544;BME280;58097;48.364;-1.224;2023-04-27T07:55:21;99527.28;;;11.44;94.33
70544;BME280;58097;48.364;-1.224;2023-04-27T07:57:55;99529.16;;;11.52;94.64
70544;BME280;58097;48.364;-1.224;2023-04-27T08:00:21;99525.88;;;11.48;95.22
70544;BME280;58097;48.364;-1.224;2023-04-27T08:02:47;99528.97;;;11.54;95.65
70544;BME280;58097;48.364;-1.224;2023-04-27T08:05:12;99530.38;;;11.58;95.82
70544;BME280;58097;48.364;-1.224;2023-04-27T08:07:39;99538.81;;;11.72;95.36
70544;BME280;58097;48.364;-1.224;2023-04-27T08:10:06;99532.72;;;11.85;94.49
70544;BME280;58097;48.364;-1.224;2023-04-27T08:12:32;99539.13;;;11.94;94.85
70544;BME280;58097;48.364;-1.224;2023-04-27T08:14:58;99535.41;;;12.09;94.84
70544;BME280;58097;48.364;-1.224;2023-04-27T08:17:23;99530.03;;;12.16;94.45
70544;BME280;58097;48.364;-1.224;2023-04-27T08:19:48;99531.50;;;12.27;94.83
70544;BME280;58097;48.364;-1.224;2023-04-27T08:22:14;99524.88;;;12.36;94.38
70544;BME280;58097;48.364;-1.224;2023-04-27T08:24:39;99533.16;;;12.44;94.75
70544;BME280;58097;48.364;-1.224;2023-04-27T08:27:05;99523.06;;;12.51;94.10
70544;BME280;58097;48.364;-1.224;2023-04-27T08:29:31;99516.69;;;12.43;95.27
70544;BME280;58097;48.364;-1.224;2023-04-27T08:31:59;99511.47;;;12.48;95.24
70544;BME280;58097;48.364;-1.224;2023-04-27T08:34:25;99516.78;;;12.57;94.01
70544;BME280;58097;48.364;-1.224;2023-04-27T08:36:51;99515.72;;;12.58;94.07
70544;BME280;58097;48.364;-1.224;2023-04-27T08:39:16;99519.91;;;12.54;94.50
70544;BME280;58097;48.364;-1.224;2023-04-27T08:41:42;99519.91;;;12.54;94.36
70544;BME280;58097;48.364;-1.224;2023-04-27T08:44:08;99520.53;;;12.64;94.06
70544;BME280;58097;48.364;-1.224;2023-04-27T08:46:36;99509.44;;;12.64;94.11
70544;BME280;58097;48.364;-1.224;2023-04-27T08:49:01;99526.03;;;12.73;93.76
70544;BME280;58097;48.364;-1.224;2023-04-27T08:51:27;99519.25;;;12.75;93.87
70544;BME280;58097;48.364;-1.224;2023-04-27T08:53:55;99522.53;;;12.79;93.92
70544;BME280;58097;48.364;-1.224;2023-04-27T08:56:22;99517.47;;;12.82;93.28
70544;BME280;58097;48.364;-1.224;2023-04-27T08:58:49;99521.88;;;12.91;93.54
70544;BME280;58097;48.364;-1.224;2023-04-27T09:01:15;99518.94;;;12.93;93.51
70544;BME280;58097;48.364;-1.224;2023-04-27T09:03:41;99524.38;;;12.86;93.34
70544;BME280;58097;48.364;-1.224;2023-04-27T09:06:07;99511.16;;;12.88;93.43
70544;BME280;58097;48.364;-1.224;2023-04-27T09:08:46;99526.88;;;12.96;92.60
70544;BME280;58097;48.364;-1.224;2023-04-27T09:11:27;99518.25;;;12.91;92.79
70544;BME280;58097;48.364;-1.224;2023-04-27T09:13:52;99512.63;;;12.99;92.28
70544;BME280;58097;48.364;-1.224;2023-04-27T09:16:22;99506.03;;;13.00;92.36
70544;BME280;58097;48.364;-1.224;2023-04-27T09:18:48;99507.94;;;12.99;92.14
70544;BME280;58097;48.364;-1.224;2023-04-27T09:21:24;99506.56;;;13.03;92.00
70544;BME280;58097;48.364;-1.224;2023-04-27T09:23:50;99506.16;;;13.07;91.90
70544;BME280;58097;48.364;-1.224;2023-04-27T09:26:21;99504.25;;;13.07;91.70
70544;BME280;58097;48.364;-1.224;2023-04-27T09:28:48;99509.50;;;13.02;92.11
70544;BME280;58097;48.364;-1.224;2023-04-27T09:31:14;99503.78;;;13.03;92.04
70544;BME280;58097;48.364;-1.224;2023-04-27T09:33:40;99504.31;;;12.99;92.51
70544;BME280;58097;48.364;-1.224;2023-04-27T09:36:06;99507.03;;;13.07;92.32
70544;BME280;58097;48.364;-1.224;2023-04-27T09:38:31;99504.75;;;13.11;92.67
70544;BME280;58097;48.364;-1.224;2023-04-27T09:40:58;99506.75;;;13.17;92.34
70544;BME280;58097;48.364;-1.224;2023-04-27T09:43:24;99494.75;;;13.24;92.84
70544;BME280;58097;48.364;-1.224;2023-04-27T09:45:52;99488.47;;;13.30;92.34
70544;BME280;58097;48.364;-1.224;2023-04-27T09:48:20;99484.25;;;13.35;92.65
70544;BME280;58097;48.364;-1.224;2023-04-27T09:50:47;99482.34;;;13.35;92.59
70544;BME280;58097;48.364;-1.224;2023-04-27T09:53:18;99480.16;;;13.30;92.62
70544;BME280;58097;48.364;-1.224;2023-04-27T10:01:26;99462.06;;;13.35;92.92
70544;BME280;58097;48.364;-1.224;2023-04-27T10:09:12;99453.91;;;13.48;94.24
70544;BME280;58097;48.364;-1.224;2023-04-27T10:11:40;99454.38;;;13.51;94.83
70544;BME280;58097;48.364;-1.224;2023-04-27T10:14:07;99454.00;;;13.54;94.43
70544;BME280;58097;48.364;-1.224;2023-04-27T10:19:10;99450.19;;;13.55;95.38
70544;BME280;58097;48.364;-1.224;2023-04-27T10:21:36;99452.22;;;13.61;94.79
70544;BME280;58097;48.364;-1.224;2023-04-27T10:24:06;99456.22;;;13.74;94.92
70544;BME280;58097;48.364;-1.224;2023-04-27T10:26:33;99448.94;;;13.58;94.83
70544;BME280;58097;48.364;-1.224;2023-04-27T10:29:06;99448.94;;;13.73;94.98
70544;BME280;58097;48.364;-1.224;2023-04-27T10:31:32;99452.19;;;13.76;94.80
70544;BME280;58097;48.364;-1.224;2023-04-27T10:34:14;99447.69;;;13.75;94.54
70544;BME280;58097;48.364;-1.224;2023-04-27T10:36:40;99443.78;;;13.70;95.08
70544;BME280;58097;48.364;-1.224;2023-04-27T10:39:16;99443.03;;;13.61;95.22
70544;BME280;58097;48.364;-1.224;2023-04-27T10:41:53;99445.22;;;13.66;95.37
70544;BME280;58097;48.364;-1.224;2023-04-27T10:44:24;99448.28;;;13.71;94.57
70544;BME280;58097;48.364;-1.224;2023-04-27T10:46:55;99435.44;;;13.70;95.14
70544;BME280;58097;48.364;-1.224;2023-04-27T10:49:21;99437.09;;;13.64;95.19
70544;BME280;58097;48.364;-1.224;2023-04-27T10:51:49;99438.03;;;13.71;95.59
70544;BME280;58097;48.364;-1.224;2023-04-27T10:54:14;99438.22;;;13.70;95.87
70544;BME280;58097;48.364;-1.224;2023-04-27T10:56:40;99456.00;;;13.75;95.66
70544;BME280;58097;48.364;-1.224;2023-04-27T10:59:05;99450.75;;;13.80;94.77
70544;BME280;58097;48.364;-1.224;2023-04-27T11:01:32;99454.56;;;13.79;95.57
70544;BME280;58097;48.364;-1.224;2023-04-27T11:03:58;99456.69;;;13.77;94.92
70544;BME280;58097;48.364;-1.224;2023-04-27T11:06:24;99453.63;;;13.72;95.11
70544;BME280;58097;48.364;-1.224;2023-04-27T11:08:50;99454.47;;;13.58;96.34
70544;BME280;58097;48.364;-1.224;2023-04-27T11:11:16;99449.03;;;13.64;96.15
70544;BME280;58097;48.364;-1.224;2023-04-27T11:13:43;99449.53;;;13.68;95.80
70544;BME280;58097;48.364;-1.224;2023-04-27T11:16:08;99440.13;;;13.69;95.90
70544;BME280;58097;48.364;-1.224;2023-04-27T11:18:36;99448.06;;;13.72;95.11
70544;BME280;58097;48.364;-1.224;2023-04-27T11:21:09;99441.06;;;13.76;95.40
70544;BME280;58097;48.364;-1.224;2023-04-27T11:23:37;99426.13;;;13.77;95.36
70544;BME280;58097;48.364;-1.224;2023-04-27T11:26:13;99427.19;;;13.76;96.25
70544;BME280;58097;48.364;-1.224;2023-04-27T11:28:41;99427.00;;;13.78;96.32
70544;BME280;58097;48.364;-1.224;2023-04-27T11:31:06;99430.56;;;13.72;96.46
70544;BME280;58097;48.364;-1.224;2023-04-27T11:33:32;99428.34;;;13.67;96.18
70544;BME280;58097;48.364;-1.224;2023-04-27T11:35:58;99418.31;;;13.66;96.08
70544;BME280;58097;48.364;-1.224;2023-04-27T11:38:23;99417.25;;;13.67;96.77
70544;BME280;58097;48.364;-1.224;2023-04-27T11:41:00;99416.59;;;13.65;96.60
70544;BME280;58097;48.364;-1.224;2023-04-27T11:43:26;99398.22;;;13.64;96.10
70544;BME280;58097;48.364;-1.224;2023-04-27T11:45:51;99402.31;;;13.68;96.60
70544;BME280;58097;48.364;-1.224;2023-04-27T11:48:18;99397.03;;;13.73;96.26
70544;BME280;58097;48.364;-1.224;2023-04-27T11:50:47;99396.75;;;13.68;97.09
70544;BME280;58097;48.364;-1.224;2023-04-27T11:53:13;99391.00;;;13.70;97.10
70544;BME280;58097;48.364;-1.224;2023-04-27T11:55:40;99395.78;;;13.76;96.55
70544;BME280;58097;48.364;-1.224;2023-04-27T11:58:12;99393.88;;;13.76;96.48
70544;BME280;58097;48.364;-1.224;2023-04-27T12:00:38;99399.63;;;13.75;96.91
70544;BME280;58097;48.364;-1.224;2023-04-27T12:03:03;99397.50;;;13.77;96.59
70544;BME280;58097;48.364;-1.224;2023-04-27T12:05:29;99401.81;;;13.79;96.64
70544;BME280;58097;48.364;-1.224;2023-04-27T12:07:54;99407.09;;;13.74;96.79
70544;BME280;58097;48.364;-1.224;2023-04-27T12:10:20;99417.13;;;13.75;96.60
70544;BME280;58097;48.364;-1.224;2023-04-27T12:12:45;99413.31;;;13.76;96.46
70544;BME280;58097;48.364;-1.224;2023-04-27T12:15:10;99413.31;;;13.76;96.81
70544;BME280;58097;48.364;-1.224;2023-04-27T12:17:37;99410.53;;;13.76;96.42
70544;BME280;58097;48.364;-1.224;2023-04-27T12:20:03;99409.00;;;13.74;96.32
70544;BME280;58097;48.364;-1.224;2023-04-27T12:22:29;99400.28;;;13.77;96.03
70544;BME280;58097;48.364;-1.224;2023-04-27T12:24:54;99396.72;;;13.83;96.24
70544;BME280;58097;48.364;-1.224;2023-04-27T12:27:20;99395.47;;;13.85;96.28
70544;BME280;58097;48.364;-1.224;2023-04-27T12:29:45;99381.03;;;13.90;96.59
70544;BME280;58097;48.364;-1.224;2023-04-27T12:32:11;99381.50;;;13.93;97.20
70544;BME280;58097;48.364;-1.224;2023-04-27T12:34:36;99384.06;;;13.95;97.70
70544;BME280;58097;48.364;-1.224;2023-04-27T12:37:03;99382.81;;;13.98;98.12
70544;BME280;58097;48.364;-1.224;2023-04-27T12:39:28;99383.66;;;13.98;98.54
70544;BME280;58097;48.364;-1.224;2023-04-27T12:41:54;99380.69;;;14.00;98.87
70544;BME280;58097;48.364;-1.224;2023-04-27T12:44:20;99385.84;;;14.03;98.62
70544;BME280;58097;48.364;-1.224;2023-04-27T12:46:46;99378.97;;;13.99;98.26
70544;BME280;58097;48.364;-1.224;2023-04-27T12:49:15;99382.81;;;13.98;98.67
70544;BME280;58097;48.364;-1.224;2023-04-27T12:51:41;99379.16;;;13.97;98.51
70544;BME280;58097;48.364;-1.224;2023-04-27T12:54:08;99375.34;;;13.98;98.93
70544;BME280;58097;48.364;-1.224;2023-04-27T12:56:34;99379.03;;;14.05;98.21
70544;BME280;58097;48.364;-1.224;2023-04-27T12:58:59;99380.31;;;14.03;98.28